createdAt,value
2018-09-12T00:01:42.970Z,21.06
2018-09-12T00:05:46.560Z,21.04
2018-09-12T00:09:50.169Z,21.05
2018-09-12T00:13:53.681Z,21.03
2018-09-12T00:17:57.163Z,21.00
2018-09-12T00:22:00.832Z,20.95
2018-09-12T00:26:04.424Z,20.93
2018-09-12T00:30:08.179Z,20.88
2018-09-12T00:34:11.765Z,20.84
2018-09-12T00:38:15.280Z,20.82
2018-09-12T00:42:18.807Z,20.79
2018-09-12T00:46:22.480Z,20.74
2018-09-12T00:50:26.020Z,20.70
2018-09-12T00:54:29.695Z,20.66
2018-09-12T00:58:33.219Z,20.64
2018-09-12T01:02:36.722Z,20.60
2018-09-12T01:06:40.211Z,20.58
2018-09-12T01:10:43.784Z,20.54
2018-09-12T01:14:47.479Z,20.51
2018-09-12T01:18:51.365Z,20.48
2018-09-12T01:22:54.816Z,20.44
2018-09-12T01:26:59.408Z,20.41
2018-09-12T01:31:03.259Z,20.35
2018-09-12T01:35:06.739Z,20.30
2018-09-12T01:39:11.070Z,20.27
2018-09-12T01:43:14.635Z,20.21
2018-09-12T01:47:18.180Z,20.14
2018-09-12T01:51:21.747Z,20.10
2018-09-12T01:55:25.592Z,20.03
2018-09-12T01:59:29.060Z,19.97
2018-09-12T02:03:32.566Z,19.91
2018-09-12T02:07:37.194Z,19.86
2018-09-12T02:11:40.908Z,19.81
2018-09-12T02:15:44.451Z,19.73
2018-09-12T02:19:48.026Z,19.64
2018-09-12T02:23:51.628Z,19.57
2018-09-12T02:27:55.342Z,19.51
2018-09-12T02:31:58.849Z,19.46
2018-09-12T02:36:08.103Z,19.43
2018-09-12T02:40:11.575Z,19.42
2018-09-12T02:44:15.181Z,19.42
2018-09-12T02:48:18.596Z,19.40
2018-09-12T02:52:22.147Z,19.37
2018-09-12T02:56:25.699Z,19.33
2018-09-12T03:00:29.380Z,19.26
2018-09-12T03:04:47.137Z,19.21
2018-09-12T03:08:50.635Z,19.17
2018-09-12T03:12:54.090Z,19.13
2018-09-12T03:16:57.536Z,19.08
2018-09-12T03:21:02.417Z,19.04
2018-09-12T03:25:06.448Z,18.98
2018-09-12T03:29:09.942Z,18.92
2018-09-12T03:33:14.807Z,18.88
2018-09-12T03:37:18.923Z,18.88
2018-09-12T03:41:23.311Z,18.88
2018-09-12T03:45:26.891Z,18.86
2018-09-12T03:49:30.531Z,18.84
2018-09-12T03:53:33.969Z,18.82
2018-09-12T03:57:37.700Z,18.78
2018-09-12T04:01:41.300Z,18.74
2018-09-12T04:05:44.942Z,18.70
2018-09-12T04:09:48.478Z,18.70
2018-09-12T04:13:53.288Z,18.69
2018-09-12T04:17:56.779Z,18.65
2018-09-12T04:22:00.436Z,18.63
2018-09-12T04:26:05.825Z,18.60
2018-09-12T04:30:09.422Z,18.57
2018-09-12T04:34:13.065Z,18.55
2018-09-12T04:38:16.558Z,18.51
2018-09-12T04:42:21.587Z,18.50
2018-09-12T04:46:25.080Z,18.48
2018-09-12T04:50:28.623Z,18.46
2018-09-12T04:54:32.307Z,18.46
2018-09-12T04:58:35.896Z,18.46
2018-09-12T05:02:39.428Z,18.44
2018-09-12T05:06:43.075Z,18.42
2018-09-12T05:10:46.745Z,18.42
2018-09-12T05:14:50.739Z,18.45
2018-09-12T05:18:54.279Z,18.51
2018-09-12T05:22:57.718Z,18.54
2018-09-12T05:27:01.438Z,18.55
2018-09-12T05:31:05.167Z,18.54
2018-09-12T05:35:08.788Z,18.53
2018-09-12T05:39:12.420Z,18.51
2018-09-12T05:43:15.936Z,18.53
2018-09-12T05:47:19.599Z,18.57
2018-09-12T05:51:23.135Z,18.60
2018-09-12T05:55:26.823Z,18.66
2018-09-12T05:59:30.447Z,18.74
2018-09-12T06:03:34.366Z,18.79
2018-09-12T06:07:37.903Z,18.83
2018-09-12T06:11:41.417Z,18.88
2018-09-12T06:15:45.064Z,18.95
2018-09-12T06:19:48.666Z,19.02
2018-09-12T06:23:52.168Z,19.11
2018-09-12T06:27:55.778Z,19.19
2018-09-12T06:31:59.387Z,19.28
2018-09-12T06:36:02.925Z,19.38
2018-09-12T06:40:06.739Z,19.50
2018-09-12T06:44:10.292Z,19.66
2018-09-12T06:48:15.027Z,19.80
2018-09-12T06:52:20.563Z,19.87
2018-09-12T06:56:24.188Z,19.97
2018-09-12T07:00:27.792Z,20.08
2018-09-12T07:04:33.524Z,20.21
2018-09-12T07:08:37.059Z,20.34
2018-09-12T07:12:40.537Z,20.43
2018-09-12T07:16:44.050Z,20.52
2018-09-12T07:20:47.562Z,20.72
2018-09-12T07:24:51.593Z,20.91
2018-09-12T07:28:55.343Z,21.13
2018-09-12T07:32:58.870Z,21.33
2018-09-12T07:37:02.756Z,21.50
2018-09-12T07:41:06.305Z,21.57
2018-09-12T07:49:12.269Z,21.77
2018-09-12T07:53:16.179Z,21.86
2018-09-12T07:57:19.764Z,21.96
2018-09-12T08:01:23.736Z,22.04
2018-09-12T08:05:27.275Z,22.14
2018-09-12T08:09:30.824Z,22.29
2018-09-12T08:13:34.407Z,22.49
2018-09-12T08:17:38.003Z,22.66
2018-09-12T08:21:41.513Z,22.77
2018-09-12T08:25:45.141Z,22.86
2018-09-12T08:29:48.684Z,23.06
2018-09-12T08:33:53.360Z,23.26
2018-09-12T08:37:57.020Z,23.46
2018-09-12T08:42:01.192Z,23.63
2018-09-12T08:46:04.820Z,23.75
2018-09-12T08:50:08.965Z,23.87
2018-09-12T08:54:12.886Z,24.06
2018-09-12T08:58:16.950Z,24.28
2018-09-12T09:02:20.704Z,24.43
2018-09-12T09:06:24.435Z,24.61
2018-09-12T09:10:28.129Z,24.80
2018-09-12T09:14:31.570Z,24.97
2018-09-12T09:18:35.168Z,25.14
2018-09-12T09:22:38.749Z,25.32
2018-09-12T09:26:43.415Z,25.48
2018-09-12T09:30:48.062Z,25.59
2018-09-12T09:34:51.597Z,25.72
2018-09-12T09:38:55.218Z,25.84
2018-09-12T09:42:58.843Z,26.00
2018-09-12T09:47:02.427Z,26.13
2018-09-12T09:59:28.911Z,26.38
2018-09-12T10:03:37.508Z,26.44
2018-09-12T10:07:46.986Z,26.56
2018-09-12T10:11:50.532Z,26.68
2018-09-12T10:15:54.260Z,26.82
2018-09-12T10:19:58.142Z,26.97
2018-09-12T10:24:01.669Z,27.10
2018-09-12T10:28:05.348Z,27.17
2018-09-12T10:32:08.966Z,27.30
2018-09-12T10:36:12.430Z,27.41
2018-09-12T10:40:16.163Z,27.54
2018-09-12T10:44:19.887Z,27.66
2018-09-12T10:48:23.503Z,27.75
2018-09-12T10:52:27.102Z,27.84
2018-09-12T10:56:30.793Z,27.93
2018-09-12T11:00:34.440Z,28.05
2018-09-12T11:04:37.995Z,28.13
2018-09-12T11:08:41.822Z,28.23
2018-09-12T11:12:45.945Z,28.38
2018-09-12T11:16:49.510Z,28.47
2018-09-12T11:20:53.111Z,28.58
2018-09-12T11:24:57.260Z,28.67
2018-09-12T11:29:00.747Z,28.78
2018-09-12T11:33:04.280Z,28.90
2018-09-12T11:37:08.055Z,28.96
2018-09-12T11:41:11.698Z,29.04
2018-09-12T11:45:16.635Z,29.11
2018-09-12T11:49:20.154Z,29.17
2018-09-12T11:53:24.831Z,29.24
2018-09-12T11:57:28.580Z,29.32
2018-09-12T12:01:32.212Z,29.41
2018-09-12T12:05:35.919Z,29.54
2018-09-12T12:09:39.675Z,29.60
2018-09-12T12:13:43.212Z,29.57
2018-09-12T12:17:47.115Z,29.62
2018-09-12T12:21:50.671Z,29.69
2018-09-12T12:25:54.409Z,29.79
2018-09-12T12:29:57.939Z,29.87
2018-09-12T12:34:04.108Z,29.89
2018-09-12T12:38:08.285Z,29.89
2018-09-12T12:42:11.803Z,29.94
2018-09-12T12:46:15.262Z,29.98
2018-09-12T12:50:22.138Z,30.06
2018-09-12T12:54:25.721Z,30.06
2018-09-12T12:58:29.394Z,30.02
2018-09-12T13:02:32.993Z,30.02
2018-09-12T13:06:36.560Z,30.09
2018-09-12T13:10:40.147Z,30.15
2018-09-12T13:14:44.073Z,30.17
2018-09-12T13:18:47.795Z,30.14
2018-09-12T13:22:51.319Z,30.16
2018-09-12T13:26:54.798Z,30.15
2018-09-12T13:30:58.495Z,30.13
2018-09-12T13:35:03.669Z,30.14
2018-09-12T13:39:11.954Z,30.19
2018-09-12T13:43:15.647Z,30.17
2018-09-12T13:47:20.281Z,30.13
2018-09-12T13:51:23.893Z,30.09
2018-09-12T13:55:27.734Z,30.11
2018-09-12T13:59:31.307Z,30.09
2018-09-12T14:03:34.977Z,30.06
2018-09-12T14:07:38.543Z,30.04
2018-09-12T14:11:43.274Z,30.01
2018-09-12T14:15:46.866Z,29.99
2018-09-12T14:19:50.665Z,29.95
2018-09-12T14:23:54.156Z,29.90
2018-09-12T14:27:58.915Z,29.89
2018-09-12T14:32:02.653Z,29.83
2018-09-12T14:36:07.518Z,29.79
2018-09-12T14:40:11.073Z,29.76
2018-09-12T14:44:14.796Z,29.71
2018-09-12T14:48:18.401Z,29.66
2018-09-12T14:52:22.034Z,29.64
2018-09-12T14:56:25.687Z,29.61
2018-09-12T15:00:29.630Z,29.57
2018-09-12T15:04:33.263Z,29.51
2018-09-12T15:08:39.218Z,29.47
2018-09-12T15:12:43.056Z,29.43
2018-09-12T15:16:46.947Z,29.39
2018-09-12T15:20:50.482Z,29.36
2018-09-12T15:24:54.287Z,29.32
2018-09-12T15:28:57.824Z,29.25
2018-09-12T15:33:02.138Z,29.20
2018-09-12T15:37:06.207Z,29.16
2018-09-12T15:41:09.943Z,29.12
2018-09-12T15:45:13.415Z,29.08
2018-09-12T15:49:19.719Z,29.05
2018-09-12T15:53:23.558Z,29.02
2018-09-12T15:57:27.158Z,28.98
2018-09-12T16:01:30.727Z,28.91
2018-09-12T16:05:34.349Z,28.88
2018-09-12T16:09:38.277Z,28.84
2018-09-12T16:13:42.948Z,28.79
2018-09-12T16:17:46.484Z,28.73
2018-09-12T16:21:50.059Z,28.66
2018-09-12T16:25:53.728Z,28.60
2018-09-12T16:29:57.315Z,28.54
2018-09-12T16:34:01.282Z,28.49
2018-09-12T16:38:05.262Z,28.42
2018-09-12T16:42:08.771Z,28.35
2018-09-12T16:46:12.652Z,28.28
2018-09-12T16:50:16.629Z,28.24
2018-09-12T16:54:20.243Z,28.18
2018-09-12T16:58:24.127Z,28.13
2018-09-12T17:02:27.776Z,28.08
2018-09-12T17:06:31.383Z,28.02
2018-09-12T17:10:35.031Z,27.93
2018-09-12T17:14:38.606Z,27.85
2018-09-12T17:18:42.764Z,27.76
2018-09-12T17:22:46.387Z,27.68
2018-09-12T17:26:50.002Z,27.58
2018-09-12T17:30:54.114Z,27.51
2018-09-12T17:34:58.239Z,27.44
2018-09-12T17:39:02.317Z,27.37
2018-09-12T17:43:07.776Z,27.29
2018-09-12T17:47:11.506Z,27.22
2018-09-12T17:51:15.191Z,27.14
2018-09-12T17:55:18.695Z,27.04
2018-09-12T17:59:22.678Z,26.93
2018-09-12T18:03:26.782Z,26.83
2018-09-12T18:07:30.607Z,26.73
2018-09-12T18:11:34.142Z,26.62
2018-09-12T18:15:38.151Z,26.52
2018-09-12T18:19:41.797Z,26.40
2018-09-12T18:23:45.510Z,26.26
2018-09-12T18:27:49.059Z,26.16
2018-09-12T18:31:52.938Z,26.03
2018-09-12T18:35:56.870Z,25.94
2018-09-12T18:40:00.426Z,25.80
2018-09-12T18:44:05.700Z,25.68
2018-09-12T18:48:10.971Z,25.58
2018-09-12T18:52:14.728Z,25.48
2018-09-12T18:56:18.392Z,25.39
2018-09-12T19:00:22.065Z,25.25
2018-09-12T19:04:25.701Z,25.15
2018-09-12T19:08:29.254Z,25.11
2018-09-12T19:12:32.845Z,25.04
2018-09-12T19:16:36.363Z,24.97
2018-09-12T19:20:41.463Z,24.88
2018-09-12T19:24:45.073Z,24.80
2018-09-12T19:28:48.863Z,24.75
2018-09-12T19:32:52.782Z,24.71
2018-09-12T19:36:57.119Z,24.69
2018-09-12T19:41:00.705Z,24.65
2018-09-12T19:45:04.905Z,24.64
2018-09-12T19:49:08.619Z,24.60
2018-09-12T19:53:12.379Z,24.53
2018-09-12T19:57:15.987Z,24.47
2018-09-12T20:01:19.811Z,24.38
2018-09-12T20:05:23.270Z,24.27
2018-09-12T20:09:27.050Z,24.18
2018-09-12T20:13:30.547Z,24.13
2018-09-12T20:17:34.264Z,24.09
2018-09-12T20:21:37.821Z,24.01
2018-09-12T20:25:42.173Z,23.90
2018-09-12T20:29:46.447Z,23.84
2018-09-12T20:33:50.140Z,23.75
2018-09-12T20:37:53.697Z,23.67
2018-09-12T20:41:57.223Z,23.65
2018-09-12T20:46:01.175Z,23.59
2018-09-12T20:50:04.918Z,23.53
2018-09-12T20:54:08.438Z,23.47
2018-09-12T20:58:12.086Z,23.42
2018-09-12T21:02:16.078Z,23.35
2018-09-12T21:06:19.884Z,23.26
2018-09-12T21:10:23.420Z,23.22
2018-09-12T21:14:27.046Z,23.14
2018-09-12T21:18:30.756Z,22.99
2018-09-12T21:22:34.623Z,22.90
2018-09-12T21:26:38.373Z,22.86
2018-09-12T21:30:41.988Z,22.82
2018-09-12T21:34:45.512Z,22.80
2018-09-12T21:38:49.197Z,22.76
2018-09-12T21:42:53.778Z,22.72
2018-09-12T21:46:57.389Z,22.67
2018-09-12T21:51:02.317Z,22.61
2018-09-12T21:55:05.851Z,22.55
2018-09-12T21:59:09.764Z,22.47
2018-09-12T22:03:14.550Z,22.37
2018-09-12T22:07:18.379Z,22.26
2018-09-12T22:11:22.334Z,22.18
2018-09-12T22:15:25.818Z,22.15
2018-09-12T22:19:29.538Z,22.08
2018-09-12T22:23:34.124Z,22.03
2018-09-12T22:27:38.069Z,22.00
2018-09-12T22:31:41.566Z,21.92
2018-09-12T22:35:45.257Z,21.86
2018-09-12T22:39:48.864Z,21.81
2018-09-12T22:43:54.083Z,21.76
2018-09-12T22:47:57.684Z,21.75
2018-09-12T22:52:01.415Z,21.74
2018-09-12T22:56:05.021Z,21.64
2018-09-12T23:00:09.886Z,21.57
2018-09-12T23:04:13.566Z,21.51
2018-09-12T23:08:17.198Z,21.43
2018-09-12T23:12:20.955Z,21.35
2018-09-12T23:16:24.600Z,21.33
2018-09-12T23:20:28.138Z,21.27
2018-09-12T23:24:31.870Z,21.19
2018-09-12T23:28:35.363Z,21.12
2018-09-12T23:32:38.980Z,21.06
2018-09-12T23:36:42.479Z,21.02
2018-09-12T23:40:46.118Z,20.98
2018-09-12T23:44:49.829Z,20.95
2018-09-12T23:48:53.404Z,20.91
2018-09-12T23:52:57.320Z,20.84
2018-09-12T23:57:00.945Z,20.75
